Flight Track Log - Related Links

Times and Time Zones

All times are in EDT time to prevent confusion due to time zone crossing. See the SLI2072 flight status page for this flight to view local times or setup timezone preferences in your user account.

Time Position Orientation Groundspeed Altitude Reporting Facility
EDT Latitude Longitude Course Direction KTS MPH feet Rate Location/Type
Wed 05:19:00 PM 20.2420 -100.8618 296° West  Level Estimated
Wed 05:20:00 PM 20.2800 -100.9475 295° West  Level Estimated
Wed 05:21:00 PM 20.3178 -101.0332 295° West  Level Estimated
Wed 05:22:00 PM 20.3557 -101.1190 295° West  Level Estimated
Wed 05:23:00 PM 20.3935 -101.2048 295° West  Level Estimated
Wed 05:24:00 PM 20.4312 -101.2907 295° West  Level Estimated
Wed 05:25:00 PM 20.4689 -101.3766 295° West  Level Estimated
Wed 05:26:00 PM 20.5066 -101.4625 295° West  Level Estimated
Wed 05:27:00 PM 20.5442 -101.5485 295° West  Level Estimated
Wed 05:28:00 PM 20.5818 -101.6345 295° West  Level Estimated
Wed 05:29:00 PM 20.6193 -101.7206 295° West  Level Estimated
Wed 05:30:00 PM 20.6568 -101.8067 295° West  Level Estimated
Wed 05:31:00 PM 20.6943 -101.8928 295° West  Level Estimated
Wed 05:32:00 PM 20.7317 -101.9790 295° West  Level Estimated
Wed 05:33:00 PM 20.7691 -102.0652 295° West  Level Estimated
Wed 05:34:00 PM 20.8064 -102.1515 295° West  Level Estimated
Wed 05:35:00 PM 20.8437 -102.2378 295° West  Level Estimated
Wed 05:36:00 PM 20.8809 -102.3242 295° West  Level Estimated
Wed 05:37:00 PM 20.9181 -102.4106 295° West  Level Estimated
Wed 05:38:00 PM 20.9553 -102.4970 295° West  Level Estimated
Wed 05:39:00 PM 20.9924 -102.5835 295° West  Level Estimated
Wed 05:40:00 PM 21.0294 -102.6701 295° West  Level Estimated
Wed 05:41:00 PM 21.0665 -102.7566 295° West  Level Estimated
Wed 05:42:00 PM 21.1035 -102.8432 295° West  Level Estimated
Wed 05:43:00 PM 21.1404 -102.9299 295° West  Level Estimated
Wed 05:44:00 PM 21.1773 -103.0166 295° West  Level Estimated
Wed 05:45:00 PM 21.2141 -103.1033 295° West  Level Estimated
Wed 05:46:00 PM 21.2509 -103.1901 294° West  Level Estimated
Wed 05:47:00 PM 21.2877 -103.2770 294° West  Level Estimated
Wed 05:48:00 PM 21.3244 -103.3639 294° West  Level Estimated
Wed 05:49:00 PM 21.3611 -103.4508 294° West  Level Estimated
Wed 05:50:00 PM 21.3977 -103.5377 294° West  Level Estimated
Wed 05:51:00 PM 21.4343 -103.6247 294° West  Level Estimated
Wed 05:52:00 PM 21.4708 -103.7118 294° West  Level Estimated
Wed 05:53:00 PM 21.5073 -103.7989 294° West  Level Estimated
Wed 05:54:00 PM 21.5437 -103.8860 294° West  Level Estimated
Wed 05:55:00 PM 21.5801 -103.9732 294° West  Level Estimated
Wed 05:56:00 PM 21.6165 -104.0604 294° West  Level Estimated
Wed 05:57:00 PM 21.6528 -104.1477 294° West  Level Estimated
Wed 05:58:00 PM 21.6890 -104.2350 294° West  Level Estimated
Wed 05:59:00 PM 21.7253 -104.3224 294° West  Level Estimated
Wed 06:00:00 PM 21.7614 -104.4098 294° West  Level Estimated
Wed 06:01:00 PM 21.7975 -104.4972 294° West  Level Estimated
Wed 06:02:00 PM 21.8336 -104.5847 294° West  Level Estimated
Wed 06:03:00 PM 21.8696 -104.6722 294° West  Level Estimated
Wed 06:04:00 PM 21.9056 -104.7598 294° West  Level Estimated
Wed 06:05:00 PM 21.9416 -104.8474 294° West  Level Estimated
Wed 06:06:00 PM 21.9775 -104.9351 294° West  Level Estimated
Wed 06:07:00 PM 22.0133 -105.0228 294° West  Level Estimated
Wed 06:08:00 PM 22.0491 -105.1106 294° West  Level Estimated
Wed 06:09:00 PM 22.0849 -105.1984 294° West  Level Estimated
Wed 06:10:00 PM 22.1206 -105.2862 294° West  Level Estimated
Wed 06:11:00 PM 22.1562 -105.3741 294° West  Level Estimated
Wed 06:12:00 PM 22.1918 -105.4620 294° West  Level Estimated
Wed 06:13:00 PM 22.2274 -105.5500 294° West  Level Estimated
Wed 06:14:00 PM 22.2629 -105.6380 294° West  Level Estimated
Wed 06:15:00 PM 22.2984 -105.7261 294° West  Level Estimated
Wed 06:16:00 PM 22.3338 -105.8142 294° West  Level Estimated
Wed 06:17:00 PM 22.3692 -105.9024 293° West  Level Estimated
Wed 06:18:00 PM 22.4045 -105.9906 293° West  Level Estimated
Wed 06:19:00 PM 22.4398 -106.0788 293° West  Level Estimated
Wed 06:20:00 PM 22.4750 -106.1671 293° West  Level Estimated
Wed 06:21:00 PM 22.5102 -106.2554 293° West  Level Estimated
Wed 06:22:00 PM 22.5453 -106.3438 293° West  Level Estimated
Wed 06:23:00 PM 22.5804 -106.4323 293° West  Level Estimated
Wed 06:24:00 PM 22.6154 -106.5207 293° West  Level Estimated
Wed 06:25:00 PM 22.6504 -106.6093 293° West  Level Estimated
Wed 06:26:00 PM 22.6854 -106.6978 293° West  Level Estimated
Wed 06:27:00 PM 22.7203 -106.7864 293° West  Level Estimated
Wed 06:28:00 PM 22.7551 -106.8751 293° West  Level Estimated
Wed 06:29:00 PM 22.7899 -106.9638 293° West  Level Estimated
Wed 06:30:00 PM 22.8246 -107.0525 293° West  Level Estimated
Wed 06:31:00 PM 22.8593 -107.1413 293° West  Level Estimated
Wed 06:32:00 PM 22.8940 -107.2301 293° West  Level Estimated
Wed 06:33:00 PM 22.9286 -107.3190 293° West  Level Estimated
Wed 06:34:00 PM 22.9631 -107.4079 293° West  Level Estimated
Wed 06:35:00 PM 22.9976 -107.4969 293° West  Level Estimated
Wed 06:36:00 PM 23.0321 -107.5859 293° West  Level Estimated
Wed 06:37:00 PM 23.0665 -107.6750 293° West  Level Estimated
Wed 06:38:00 PM 23.1008 -107.7641 293° West  Level Estimated
Wed 06:39:00 PM 23.1351 -107.8532 293° West  Level Estimated
Wed 06:40:00 PM 23.1694 -107.9424 293° West  Level Estimated
Wed 06:41:00 PM 23.2036 -108.0317 293° West  Level Estimated
Wed 06:42:00 PM 23.2377 -108.1209 293° West  Level Estimated
Wed 06:43:00 PM 23.2718 -108.2103 293° West  Level Estimated
Wed 06:44:00 PM 23.3059 -108.2997 293° West  Level Estimated
Wed 06:45:00 PM 23.3399 -108.3891 293° West  Level Estimated
Wed 06:46:00 PM 23.3738 -108.4786 292° West  Level Estimated
Wed 06:47:00 PM 23.4077 -108.5681 292° West  Level Estimated
Wed 06:48:00 PM 23.4415 -108.6576 292° West  Level Estimated
Wed 06:49:00 PM 23.4753 -108.7472 292° West  Level Estimated
Wed 06:50:00 PM 23.5091 -108.8369 292° West  Level Estimated
Wed 06:51:00 PM 23.5428 -108.9266 292° West  Level Estimated
Wed 06:52:00 PM 23.5764 -109.0163 292° West  Level Estimated
Wed 06:53:00 PM 23.6100 -109.1061 292° West  Level Estimated
Wed 06:54:00 PM 23.6435 -109.1960 292° West  Level Estimated
Wed 06:55:00 PM 23.6770 -109.2858 292° West  Level Estimated
Wed 06:56:00 PM 23.7104 -109.3758 292° West  Level Estimated
Wed 06:57:00 PM 23.7438 -109.4658 292° West  Level Estimated
Wed 06:58:00 PM 23.7771 -109.5558 292° West  Level Estimated
Wed 06:59:00 PM 23.8104 -109.6458 292° West  Level Estimated
Wed 07:00:00 PM 23.8436 -109.7359 292° West  Level Estimated
Wed 07:01:00 PM 23.8768 -109.8261 292° West  Level Estimated
Wed 07:02:00 PM 23.9099 -109.9163 292° West  Level Estimated
Wed 07:03:00 PM 23.9430 -110.0066 292° West  Level Estimated
Wed 07:04:00 PM 23.9760 -110.0969 292° West  Level Estimated
Wed 07:05:00 PM 24.0090 -110.1872 292° West  Level Estimated
Wed 07:06:00 PM 24.0419 -110.2776 292° West  Level Estimated
Wed 07:07:00 PM 24.0727 -110.3625 292° West  Level Estimated
Wed 07:08:00 PM 24.0727 -110.3625 49° Northeast  Level Estimated
Wed 07:09:00 PM 24.0727 -110.3625 49° Northeast  Level Estimated
Wed 07:10:00 PM 24.0727 -110.3625 49° Northeast  Level Estimated
Wed 07:11:00 PM 24.0727 -110.3625 49° Northeast  Level Estimated
Wed 07:12:00 PM 24.0727 -110.3625 49° Northeast  Level Estimated
Wed 07:13:00 PM 24.0727 -110.3625 49° Northeast  Level Estimated
Wed 07:14:00 PM 24.0727 -110.3625 49° Northeast  Level Estimated
Wed 07:15:00 PM 24.0727 -110.3625 49° Northeast  Level Estimated
Wed 07:16:00 PM 24.0727 -110.3625 49° Northeast  Level Estimated
Wed 07:17:00 PM 24.0727 -110.3625 49° Northeast  Level Estimated
Wed 07:18:00 PM 24.0727 -110.3625 49° Northeast  Level Estimated
Wed 07:19:00 PM 24.0727 -110.3625 49° Northeast  Level Estimated
Wed 07:20:00 PM 24.0727 -110.3625 49° Northeast  Level Estimated
Wed 07:21:00 PM 24.0727 -110.3625 49° Northeast  Level Estimated
Wed 07:22:00 PM 24.0727 -110.3625 49° Northeast  Level Estimated
Wed 07:23:00 PM 24.0727 -110.3625 49° Northeast  Level Estimated

Login

Don't have an account? Register now (free) for customized features, flight alerts, and more!